Rijkevorsel, Belgium
Current Conditions -  °F | °C
As of 1:55 PM on Thursday 27 Nov 2014 (Local Time) from EHGR Reporting Station
Haze Haze  
Wind Chill: 46°   Ceiling: 4100
Heat Index: 48°   Visibility: 6mi
Dew Point: 45°   Wind: 6mph
Humidity: 87%   Direction: 120°ESE
Pressure: 29.71"   Gusts: NA
Location:  51.35°N, 4.76°E
Report Text: EHGR 271255Z AUTO 12005KT 9000 BR OVC041 09/07 Q1006 BLU 13006KT 9999 BKN045
Loading
Personal Weather Stations






























Interactive Weather Map New forecast layout! Learn more

10-Day Weather Forecast

Advertisements
Track Severe Weather on mobile